Time;durP1;ratioP1;P1;durP2;ratioP2;P2;SDS_P1;SDS_P2;PMS_P1;PMS_P2;Temp;Humidity;BMP_temperature;BMP_pressure;BME280_temperature;BME280_humidity;BME280_pressure;Samples;Min_cycle;Max_cycle;Signal;HPM_P1;HPM_P2
2023/09/05 00:00:45;;;;;;;5.25;3.90;;;16.00;99.90;;;;;;5074593;28;20228;-77
2023/09/05 00:03:11;;;;;;;6.05;3.95;;;16.00;99.90;;;;;;5074441;28;20606;-77
2023/09/05 00:05:37;;;;;;;7.20;4.57;;;16.00;99.90;;;;;;5074706;28;20184;-78
2023/09/05 00:08:03;;;;;;;6.63;3.97;;;16.00;99.90;;;;;;5073946;28;20197;-77
2023/09/05 00:10:28;;;;;;;9.75;4.40;;;16.00;99.90;;;;;;5073528;28;20244;-77
2023/09/05 00:12:54;;;;;;;4.88;4.32;;;16.00;99.90;;;;;;5074967;28;20197;-77
2023/09/05 00:15:20;;;;;;;5.90;4.00;;;15.90;99.90;;;;;;5073893;28;20178;-77
2023/09/05 00:17:46;;;;;;;5.50;3.97;;;15.80;99.90;;;;;;5073771;28;20180;-78
2023/09/05 00:20:15;;;;;;;9.18;4.43;;;15.80;99.90;;;;;;5073989;28;20223;-78
2023/09/05 00:22:42;;;;;;;7.95;4.40;;;15.80;99.90;;;;;;5074892;28;20193;-77
2023/09/05 00:25:11;;;;;;;6.57;3.92;;;15.80;99.90;;;;;;5073694;28;20239;-78
2023/09/05 00:27:39;;;;;;;5.47;3.90;;;15.80;99.90;;;;;;5074693;28;20668;-76
2023/09/05 00:30:05;;;;;;;4.53;3.72;;;15.80;99.90;;;;;;5073518;28;20228;-77
2023/09/05 00:32:32;;;;;;;5.70;4.25;;;15.80;99.90;;;;;;5073461;28;20193;-77
2023/09/05 00:34:58;;;;;;;4.47;3.88;;;15.70;99.90;;;;;;5073540;28;20176;-78
2023/09/05 00:37:24;;;;;;;8.00;4.10;;;15.70;99.90;;;;;;5074885;28;20626;-77
2023/09/05 00:39:50;;;;;;;7.30;4.38;;;15.70;99.90;;;;;;5073413;28;20181;-77
2023/09/05 00:42:16;;;;;;;5.97;3.60;;;15.70;99.90;;;;;;5073498;28;20207;-76
2023/09/05 00:44:48;;;;;;;8.48;4.07;;;15.70;99.90;;;;;;5073509;28;20185;-77
2023/09/05 00:47:14;;;;;;;5.05;3.90;;;15.70;99.90;;;;;;5073261;28;20177;-77
2023/09/05 00:49:47;;;;;;;6.57;3.88;;;15.70;99.90;;;;;;5073222;28;20204;-77
2023/09/05 00:52:14;;;;;;;5.22;3.75;;;15.70;99.90;;;;;;5073180;28;20650;-77
2023/09/05 00:54:43;;;;;;;7.80;3.67;;;15.60;99.90;;;;;;5073241;28;20614;-77
2023/09/05 00:57:14;;;;;;;7.07;4.05;;;15.60;99.90;;;;;;5074066;28;20648;-76
2023/09/05 00:59:41;;;;;;;6.68;4.30;;;15.60;99.90;;;;;;5073574;28;20175;-77
2023/09/05 01:02:07;;;;;;;5.53;4.05;;;15.50;99.90;;;;;;5073285;28;20182;-77
2023/09/05 01:04:33;;;;;;;4.47;3.92;;;15.50;99.90;;;;;;5073045;28;20212;-77
2023/09/05 01:07:42;;;;;;;6.13;4.20;;;15.50;99.90;;;;;;5074220;28;20181;-77
2023/09/05 01:10:15;;;;;;;5.43;3.65;;;15.50;99.90;;;;;;5044398;28;20274;-77
2023/09/05 01:12:41;;;;;;;5.88;4.00;;;15.50;99.90;;;;;;5073670;28;20204;-76
2023/09/05 01:15:08;;;;;;;6.80;4.30;;;15.50;99.90;;;;;;5073106;28;20548;-78
2023/09/05 01:17:33;;;;;;;8.13;4.10;;;15.40;99.90;;;;;;5073229;28;20188;-77
2023/09/05 01:20:03;;;;;;;5.75;4.03;;;15.40;99.90;;;;;;5072627;28;20173;-78
2023/09/05 01:22:34;;;;;;;6.60;4.03;;;15.40;99.90;;;;;;5072245;28;20548;-77
2023/09/05 01:25:00;;;;;;;4.20;3.60;;;15.30;99.90;;;;;;5072618;28;20173;-77
2023/09/05 01:27:28;;;;;;;8.57;4.00;;;15.30;99.90;;;;;;5073658;28;20520;-76
2023/09/05 01:29:55;;;;;;;4.20;3.80;;;15.30;99.90;;;;;;5072503;28;20205;-77
2023/09/05 01:32:21;;;;;;;4.00;3.60;;;15.40;99.90;;;;;;5072542;28;20170;-77
2023/09/05 01:34:47;;;;;;;5.90;3.83;;;15.30;99.90;;;;;;5074083;28;20223;-77
2023/09/05 01:37:15;;;;;;;6.13;3.83;;;15.30;99.90;;;;;;5073728;28;20541;-78
2023/09/05 01:39:41;;;;;;;6.07;4.03;;;15.30;99.90;;;;;;5072475;28;20185;-77
2023/09/05 01:42:07;;;;;;;5.50;3.67;;;15.40;99.90;;;;;;5073912;28;20230;-77
2023/09/05 01:44:34;;;;;;;4.80;3.65;;;15.40;99.90;;;;;;5072294;28;20280;-77
2023/09/05 01:47:00;;;;;;;5.07;3.67;;;15.40;99.90;;;;;;5072388;28;20181;-77
2023/09/05 01:49:26;;;;;;;4.75;3.80;;;15.50;99.90;;;;;;5072246;28;20542;-77
2023/09/05 01:51:52;;;;;;;9.13;4.45;;;15.50;99.90;;;;;;5072393;28;20231;-78
2023/09/05 01:54:18;;;;;;;4.72;3.42;;;15.50;99.90;;;;;;5072326;28;20193;-77
2023/09/05 01:56:43;;;;;;;5.70;3.88;;;15.50;99.90;;;;;;5072171;28;20591;-77
2023/09/05 01:59:09;;;;;;;4.95;3.70;;;15.50;99.90;;;;;;5072012;28;20212;-77
2023/09/05 02:01:35;;;;;;;5.90;3.63;;;15.50;99.90;;;;;;5072068;28;20205;-78
2023/09/05 02:04:01;;;;;;;5.93;4.10;;;15.40;99.90;;;;;;5072107;28;20251;-77
2023/09/05 02:06:27;;;;;;;5.40;4.15;;;15.50;99.90;;;;;;5071974;28;20201;-78
2023/09/05 02:08:52;;;;;;;5.82;3.63;;;15.40;99.90;;;;;;5072261;28;20677;-77
2023/09/05 02:11:18;;;;;;;4.57;3.60;;;15.40;99.90;;;;;;5071887;28;20169;-78
2023/09/05 02:13:44;;;;;;;5.18;3.85;;;15.40;99.90;;;;;;5071762;28;20730;-76
2023/09/05 02:16:09;;;;;;;6.65;3.67;;;15.40;99.90;;;;;;5071876;28;20177;-78
2023/09/05 02:18:35;;;;;;;6.53;4.10;;;15.40;99.90;;;;;;5072026;28;20178;-78
2023/09/05 02:21:02;;;;;;;5.13;3.97;;;15.40;99.90;;;;;;5071893;28;20177;-78
2023/09/05 02:23:28;;;;;;;8.10;3.85;;;15.40;99.90;;;;;;5072288;28;20198;-77
2023/09/05 02:26:02;;;;;;;5.45;3.63;;;15.30;99.90;;;;;;5073268;28;20189;-76
2023/09/05 02:28:28;;;;;;;4.15;3.63;;;15.30;99.90;;;;;;5072981;28;20170;-76
2023/09/05 02:30:55;;;;;;;5.18;3.83;;;15.30;99.90;;;;;;5071899;28;20310;-77
2023/09/05 02:33:21;;;;;;;5.13;3.85;;;15.30;99.90;;;;;;5074390;28;20653;-77
2023/09/05 02:35:47;;;;;;;6.85;3.67;;;15.20;99.90;;;;;;5076915;28;20177;-77
2023/09/05 02:38:13;;;;;;;4.90;3.60;;;15.20;99.90;;;;;;5075937;28;20265;-78
2023/09/05 02:40:44;;;;;;;4.88;3.80;;;15.20;99.90;;;;;;5075751;28;20624;-78
2023/09/05 02:43:09;;;;;;;6.68;3.83;;;15.20;99.90;;;;;;5075045;28;20205;-76
2023/09/05 02:45:35;;;;;;;4.35;3.92;;;15.20;99.90;;;;;;5075254;28;20174;-78
2023/09/05 02:48:01;;;;;;;3.45;3.15;;;15.10;99.90;;;;;;5075050;28;20201;-78
2023/09/05 02:50:27;;;;;;;4.07;3.63;;;15.10;99.90;;;;;;5074968;28;20194;-78
2023/09/05 02:52:52;;;;;;;4.10;3.50;;;15.10;99.90;;;;;;5074888;28;20237;-77
2023/09/05 02:55:19;;;;;;;7.50;3.60;;;15.10;99.90;;;;;;5074908;28;20173;-76
2023/09/05 02:57:44;;;;;;;5.63;3.53;;;15.00;99.90;;;;;;5075834;28;20170;-77
2023/09/05 03:00:11;;;;;;;7.80;3.85;;;15.00;99.90;;;;;;5074907;28;20174;-78
2023/09/05 03:02:40;;;;;;;3.70;3.35;;;15.00;99.90;;;;;;5076042;28;20197;-77
2023/09/05 03:05:06;;;;;;;4.18;3.78;;;15.00;99.90;;;;;;5074856;28;20259;-77
2023/09/05 03:07:32;;;;;;;6.28;3.88;;;15.00;99.90;;;;;;5074535;28;20204;-77
2023/09/05 03:09:58;;;;;;;3.78;3.10;;;14.90;99.90;;;;;;5075100;28;20197;-77
2023/09/05 03:12:24;;;;;;;5.75;3.53;;;14.90;99.90;;;;;;5074319;28;20595;-76
2023/09/05 03:14:49;;;;;;;5.85;3.80;;;15.00;99.90;;;;;;5076194;28;20594;-77
2023/09/05 03:17:15;;;;;;;5.50;3.72;;;15.00;99.90;;;;;;5074603;28;20181;-77
2023/09/05 03:19:41;;;;;;;5.35;3.28;;;15.00;99.90;;;;;;5075801;28;20170;-78
2023/09/05 03:22:07;;;;;;;5.47;3.53;;;15.10;99.90;;;;;;5074343;28;20545;-78
2023/09/05 03:24:36;;;;;;;4.60;3.80;;;15.00;99.90;;;;;;5074565;28;20225;-78
2023/09/05 03:27:03;;;;;;;4.75;3.80;;;15.00;99.90;;;;;;5075671;28;20174;-77
2023/09/05 03:29:29;;;;;;;5.57;3.67;;;15.00;99.90;;;;;;5074138;28;20198;-77
2023/09/05 03:31:55;;;;;;;6.45;3.47;;;15.00;99.90;;;;;;5075674;28;20192;-78
2023/09/05 03:34:21;;;;;;;4.15;3.70;;;15.00;99.90;;;;;;5074260;28;20659;-78
2023/09/05 03:36:47;;;;;;;5.78;3.70;;;15.00;99.90;;;;;;5074287;28;20209;-78
2023/09/05 03:39:13;;;;;;;5.43;3.80;;;15.00;99.90;;;;;;5074140;28;20225;-78
2023/09/05 03:41:39;;;;;;;4.57;3.72;;;14.90;99.90;;;;;;5075747;28;20181;-78
2023/09/05 03:44:05;;;;;;;5.30;3.28;;;15.00;99.90;;;;;;5074337;28;20208;-77
2023/09/05 03:46:30;;;;;;;4.35;3.58;;;15.00;99.90;;;;;;5073904;28;20177;-78
2023/09/05 03:48:57;;;;;;;4.78;3.60;;;15.00;99.90;;;;;;5074105;28;20198;-78
2023/09/05 03:51:23;;;;;;;4.13;3.50;;;15.10;99.90;;;;;;5073934;28;20664;-78
2023/09/05 03:53:52;;;;;;;5.15;3.70;;;15.00;99.90;;;;;;5074012;28;20213;-77
2023/09/05 03:56:18;;;;;;;4.40;3.50;;;15.10;99.90;;;;;;5075122;28;20174;-77
2023/09/05 03:58:43;;;;;;;5.25;3.53;;;15.10;99.90;;;;;;5073734;28;20182;-77
2023/09/05 04:01:16;;;;;;;4.30;3.50;;;15.10;99.90;;;;;;5074989;28;20245;-78
2023/09/05 04:03:42;;;;;;;6.28;3.67;;;15.20;99.90;;;;;;5073621;28;20193;-78
2023/09/05 04:06:08;;;;;;;4.15;3.33;;;15.20;99.90;;;;;;5073561;28;20228;-78
2023/09/05 04:08:34;;;;;;;3.88;3.20;;;15.30;99.90;;;;;;5073811;28;20197;-77
2023/09/05 04:11:01;;;;;;;5.80;3.63;;;15.40;99.90;;;;;;5073537;28;20177;-78
2023/09/05 04:13:27;;;;;;;5.63;3.00;;;15.50;99.90;;;;;;5072997;28;20198;-77
2023/09/05 04:15:53;;;;;;;4.72;3.40;;;15.50;99.90;;;;;;5073370;28;20174;-78
2023/09/05 04:18:19;;;;;;;6.00;3.30;;;15.50;99.90;;;;;;5074804;28;20173;-78
2023/09/05 04:20:45;;;;;;;3.38;3.08;;;15.50;99.90;;;;;;5073470;28;20182;-78
2023/09/05 04:23:11;;;;;;;3.38;3.05;;;15.40;99.90;;;;;;5074752;28;20219;-77
2023/09/05 04:25:40;;;;;;;4.95;3.30;;;15.40;99.90;;;;;;5074364;28;20684;-77
2023/09/05 04:28:09;;;;;;;3.40;3.10;;;15.40;99.90;;;;;;5073025;28;20664;-77
2023/09/05 04:30:35;;;;;;;3.95;3.40;;;15.30;99.90;;;;;;5073087;28;20190;-78
2023/09/05 04:33:03;;;;;;;7.00;3.55;;;15.30;99.90;;;;;;5073342;28;20673;-78
2023/09/05 04:35:29;;;;;;;4.28;3.38;;;15.20;99.90;;;;;;5074572;28;20201;-78
2023/09/05 04:37:55;;;;;;;3.90;3.33;;;15.20;99.90;;;;;;5073405;28;20209;-77
2023/09/05 04:40:21;;;;;;;3.40;3.10;;;15.20;99.90;;;;;;5072907;28;20711;-77
2023/09/05 04:42:47;;;;;;;7.20;3.50;;;15.10;99.90;;;;;;5073728;28;20588;-77
2023/09/05 04:45:13;;;;;;;4.50;3.35;;;15.10;99.90;;;;;;5074185;28;20185;-78
2023/09/05 04:47:38;;;;;;;7.70;3.95;;;15.00;99.90;;;;;;5072797;28;20650;-78
2023/09/05 04:50:05;;;;;;;3.75;3.35;;;15.00;99.90;;;;;;5072690;28;20201;-78
2023/09/05 04:52:31;;;;;;;3.50;3.20;;;14.90;99.90;;;;;;5072976;28;20177;-78
2023/09/05 04:55:00;;;;;;;3.70;3.20;;;14.90;99.90;;;;;;5073741;28;20173;-77
2023/09/05 04:57:27;;;;;;;6.30;3.40;;;14.90;99.90;;;;;;5072920;28;20181;-77
2023/09/05 04:59:59;;;;;;;5.40;3.55;;;14.90;99.90;;;;;;5072698;28;20696;-77
2023/09/05 05:02:27;;;;;;;4.15;3.17;;;14.80;99.90;;;;;;5072578;28;20231;-77
2023/09/05 05:04:53;;;;;;;4.22;3.25;;;14.80;99.90;;;;;;5074057;28;20261;-78
2023/09/05 05:07:20;;;;;;;3.58;3.28;;;14.80;99.90;;;;;;5072644;28;20205;-77
2023/09/05 05:09:47;;;;;;;4.43;3.53;;;14.80;99.90;;;;;;5072395;28;20662;-78
2023/09/05 05:12:13;;;;;;;4.30;3.60;;;14.80;99.90;;;;;;5072302;28;20186;-77
2023/09/05 05:14:39;;;;;;;5.80;3.47;;;14.80;99.90;;;;;;5072174;28;20217;-76
2023/09/05 05:17:06;;;;;;;8.10;3.90;;;14.80;99.90;;;;;;5072563;28;20185;-77
2023/09/05 05:19:32;;;;;;;6.75;3.67;;;14.80;99.90;;;;;;5072602;28;20181;-77
2023/09/05 05:21:58;;;;;;;5.50;3.30;;;14.80;99.90;;;;;;5074062;28;20264;-77
2023/09/05 05:24:24;;;;;;;6.13;3.50;;;14.80;99.90;;;;;;5072131;28;20242;-77
2023/09/05 05:26:50;;;;;;;5.72;3.30;;;14.90;99.90;;;;;;5072492;28;20181;-77
2023/09/05 05:29:16;;;;;;;4.97;3.85;;;14.90;99.90;;;;;;5073351;28;20285;-76
2023/09/05 05:31:42;;;;;;;3.92;3.45;;;14.90;99.90;;;;;;5072242;28;20209;-77
2023/09/05 05:34:08;;;;;;;4.38;3.38;;;15.00;99.90;;;;;;5072212;28;20190;-77
2023/09/05 05:36:34;;;;;;;5.28;3.40;;;15.00;99.90;;;;;;5072147;28;20732;-77
2023/09/05 05:39:01;;;;;;;4.05;3.63;;;15.10;99.90;;;;;;5072040;28;20177;-78
2023/09/05 05:41:27;;;;;;;5.35;3.60;;;15.10;99.90;;;;;;5072162;28;20637;-78
2023/09/05 05:43:53;;;;;;;4.10;3.17;;;15.10;99.90;;;;;;5073236;28;20197;-77
2023/09/05 05:46:19;;;;;;;5.22;4.00;;;15.20;99.90;;;;;;5072104;28;20181;-78
2023/09/05 05:48:45;;;;;;;7.28;3.50;;;15.20;99.90;;;;;;5072047;28;20185;-78
2023/09/05 05:51:13;;;;;;;4.13;3.70;;;15.20;99.90;;;;;;5072083;28;20173;-78
2023/09/05 05:53:39;;;;;;;4.85;3.72;;;15.30;99.90;;;;;;5071980;28;20327;-78
2023/09/05 05:56:05;;;;;;;4.05;3.60;;;15.30;99.90;;;;;;5072009;28;20638;-77
2023/09/05 05:58:31;;;;;;;6.07;3.83;;;15.40;99.90;;;;;;5071911;28;20196;-77
2023/09/05 06:00:57;;;;;;;7.70;3.40;;;15.50;99.90;;;;;;5073478;28;20657;-78
2023/09/05 06:03:23;;;;;;;3.30;3.00;;;15.60;99.90;;;;;;5071846;28;20201;-78
2023/09/05 06:05:50;;;;;;;4.18;3.78;;;15.70;99.90;;;;;;5071928;28;20182;-78
2023/09/05 06:08:17;;;;;;;5.82;3.45;;;15.70;99.90;;;;;;5074827;28;20268;-77
2023/09/05 06:10:43;;;;;;;4.15;3.33;;;15.80;99.90;;;;;;5075810;28;20208;-78
2023/09/05 06:13:09;;;;;;;4.63;3.20;;;15.90;99.90;;;;;;5075457;28;20198;-77
2023/09/05 06:15:36;;;;;;;4.72;3.47;;;16.00;99.90;;;;;;5076050;28;20239;-78
2023/09/05 06:18:02;;;;;;;3.33;3.03;;;16.10;99.90;;;;;;5076776;28;20174;-78
2023/09/05 06:20:34;;;;;;;4.78;3.40;;;16.20;99.90;;;;;;5076821;28;20654;-78
2023/09/05 06:23:00;;;;;;;3.60;2.90;;;16.30;99.90;;;;;;5075465;28;20206;-78
2023/09/05 06:25:27;;;;;;;4.18;3.40;;;16.40;99.90;;;;;;5075406;28;20178;-78
2023/09/05 06:27:53;;;;;;;3.58;3.22;;;16.50;99.90;;;;;;5077015;28;20267;-78
2023/09/05 06:30:19;;;;;;;4.80;3.42;;;16.60;99.90;;;;;;5075212;28;20205;-77
2023/09/05 06:32:45;;;;;;;7.25;3.10;;;16.70;99.90;;;;;;5075369;28;20198;-77
2023/09/05 06:35:11;;;;;;;3.55;3.00;;;16.80;99.90;;;;;;5076853;28;20634;-78
2023/09/05 06:37:37;;;;;;;5.55;3.17;;;17.00;99.90;;;;;;5079295;28;20178;-78
2023/09/05 06:40:05;;;;;;;3.80;2.90;;;17.10;99.90;;;;;;5076342;28;20264;-78
2023/09/05 06:42:31;;;;;;;5.40;3.30;;;17.20;99.90;;;;;;5076101;28;20185;-78
2023/09/05 06:44:57;;;;;;;3.40;3.10;;;17.40;99.90;;;;;;5076344;28;20181;-78
2023/09/05 06:47:23;;;;;;;3.55;2.95;;;17.50;99.90;;;;;;5077301;28;20178;-79
2023/09/05 06:49:48;;;;;;;6.05;3.28;;;17.60;99.90;;;;;;5076752;28;20205;-78
2023/09/05 06:52:14;;;;;;;3.75;3.22;;;17.70;99.90;;;;;;5075523;28;20634;-78
2023/09/05 06:54:40;;;;;;;6.85;3.63;;;17.90;99.90;;;;;;5075917;28;20177;-79
2023/09/05 06:57:08;;;;;;;8.35;3.80;;;18.00;99.90;;;;;;5075374;28;20276;-78
2023/09/05 06:59:35;;;;;;;5.50;3.42;;;18.10;99.90;;;;;;5075241;28;20182;-78
2023/09/05 07:02:02;;;;;;;4.53;3.42;;;18.30;99.90;;;;;;5075349;28;20212;-78
2023/09/05 07:04:31;;;;;;;5.45;3.50;;;18.50;99.90;;;;;;5075324;28;20201;-78
2023/09/05 07:07:01;;;;;;;3.50;3.20;;;18.60;99.90;;;;;;5075420;28;20201;-78
2023/09/05 07:09:27;;;;;;;3.95;2.97;;;18.80;99.90;;;;;;5076761;28;20209;-78
2023/09/05 07:11:53;;;;;;;6.28;3.42;;;19.00;99.90;;;;;;5075293;28;20326;-79
2023/09/05 07:14:18;;;;;;;3.38;3.08;;;19.20;99.90;;;;;;5076314;28;20190;-78
2023/09/05 07:16:44;;;;;;;3.75;3.35;;;19.40;99.90;;;;;;5075508;28;20173;-79
2023/09/05 07:19:10;;;;;;;3.63;3.05;;;19.60;99.90;;;;;;5075453;28;20548;-78
2023/09/05 07:21:40;;;;;;;4.10;3.10;;;19.70;99.90;;;;;;5075368;28;20699;-78
2023/09/05 07:24:10;;;;;;;3.35;3.05;;;19.80;99.90;;;;;;5075157;28;20296;-78
2023/09/05 07:26:38;;;;;;;5.35;3.00;;;19.90;99.90;;;;;;5075054;28;20192;-78
2023/09/05 07:29:04;;;;;;;4.95;3.58;;;19.90;99.90;;;;;;5075118;28;20205;-78
2023/09/05 07:31:31;;;;;;;6.22;3.05;;;20.00;99.90;;;;;;5076500;28;20173;-79
2023/09/05 07:33:58;;;;;;;5.65;2.90;;;20.00;99.90;;;;;;5058706;28;20225;-78
2023/09/05 07:36:24;;;;;;;3.80;2.92;;;20.10;1.00;;;;;;5075256;28;20256;-78
2023/09/05 07:38:50;;;;;;;3.58;2.40;;;20.20;99.90;;;;;;5075068;28;20173;-78
2023/09/05 07:41:16;;;;;;;3.83;3.00;;;20.30;1.00;;;;;;5076659;28;20177;-79
2023/09/05 07:43:42;;;;;;;4.30;2.95;;;20.40;95.60;;;;;;5075651;28;20202;-77
2023/09/05 07:46:07;;;;;;;4.22;2.65;;;20.50;1.00;;;;;;5074697;28;20184;-78
2023/09/05 07:48:33;;;;;;;4.05;2.72;;;20.70;22.00;;;;;;5074575;28;20178;-78
2023/09/05 07:51:05;;;;;;;3.70;3.00;;;20.80;1.00;;;;;;5074292;28;20206;-79
2023/09/05 07:53:34;;;;;;;3.42;2.70;;;20.90;1.00;;;;;;5074476;28;20617;-78
2023/09/05 07:56:00;;;;;;;3.22;2.83;;;21.00;1.00;;;;;;5074173;28;20256;-78
2023/09/05 07:58:27;;;;;;;3.70;3.10;;;21.10;7.70;;;;;;5073857;28;20552;-77
2023/09/05 08:00:53;;;;;;;4.80;2.88;;;21.10;99.90;;;;;;5075302;28;20185;-79
2023/09/05 08:03:20;;;;;;;3.63;2.38;;;21.20;1.00;;;;;;5074085;28;20247;-78
2023/09/05 08:05:47;;;;;;;6.55;2.90;;;21.30;1.00;;;;;;5073841;28;20184;-79
2023/09/05 08:08:13;;;;;;;3.58;2.92;;;21.40;1.00;;;;;;5074457;28;20189;-78
2023/09/05 08:10:39;;;;;;;3.60;2.58;;;21.40;1.00;;;;;;5075902;28;20284;-78
2023/09/05 08:13:05;;;;;;;3.53;2.80;;;21.50;1.00;;;;;;5075636;28;20236;-78
2023/09/05 08:15:31;;;;;;;3.40;2.53;;;21.70;1.00;;;;;;5074121;28;20697;-79
2023/09/05 08:17:57;;;;;;;3.40;2.50;;;21.70;1.00;;;;;;5074350;28;20174;-78
2023/09/05 08:20:23;;;;;;;4.72;2.90;;;21.80;9.30;;;;;;5075834;28;20691;-78
2023/09/05 08:22:49;;;;;;;3.72;2.92;;;22.00;99.90;;;;;;5076051;28;20730;-78
2023/09/05 08:25:15;;;;;;;3.40;2.60;;;22.10;99.90;;;;;;5074213;28;20627;-77
2023/09/05 08:27:42;;;;;;;3.47;2.58;;;22.20;1.00;;;;;;5074164;28;20204;-78
2023/09/05 08:30:11;;;;;;;3.40;2.60;;;22.40;1.00;;;;;;5074785;28;20250;-78
2023/09/05 08:32:38;;;;;;;2.92;2.42;;;22.50;1.00;;;;;;5074222;28;20261;-78
2023/09/05 08:35:11;;;;;;;3.13;2.80;;;22.90;99.90;;;;;;5073948;28;20174;-78
2023/09/05 08:37:37;;;;;;;3.60;2.55;;;23.10;1.00;;;;;;5073469;28;20253;-78
2023/09/05 08:40:03;;;;;;;2.53;2.30;;;23.50;99.90;;;;;;5075116;28;20297;-78
2023/09/05 08:42:32;;;;;;;5.18;2.45;;;23.90;91.60;;;;;;5073316;28;20571;-78
2023/09/05 08:44:59;;;;;;;3.65;2.72;;;24.10;1.00;;;;;;5073550;28;20181;-77
2023/09/05 08:47:29;;;;;;;2.70;2.50;;;24.10;99.90;;;;;;5073458;28;20181;-78
2023/09/05 08:49:55;;;;;;;3.63;2.10;;;24.30;1.00;;;;;;5073888;28;20202;-78
2023/09/05 08:52:25;;;;;;;4.07;2.40;;;24.50;1.00;;;;;;5073765;28;20549;-78
2023/09/05 08:54:52;;;;;;;2.63;2.15;;;24.60;1.00;;;;;;5073875;28;20177;-78
2023/09/05 08:57:19;;;;;;;2.45;2.00;;;24.80;1.00;;;;;;5075186;28;20213;-78
2023/09/05 08:59:44;;;;;;;2.13;1.95;;;25.10;99.90;;;;;;5075178;28;20540;-78
2023/09/05 09:02:17;;;;;;;6.22;2.63;;;25.20;1.00;;;;;;5075003;28;20170;-78
2023/09/05 09:04:53;;;;;;;2.88;2.10;;;25.30;1.00;;;;;;5074965;28;20211;-78
2023/09/05 09:07:24;;;;;;;3.78;2.30;;;25.40;30.10;;;;;;5074075;28;20279;-78
2023/09/05 09:09:50;;;;;;;4.07;2.22;;;25.50;99.90;;;;;;5074722;28;20674;-78
2023/09/05 09:12:15;;;;;;;4.63;2.22;;;25.70;99.90;;;;;;5074646;28;20243;-78
2023/09/05 09:14:43;;;;;;;2.67;2.28;;;25.80;1.00;;;;;;5073342;28;20265;-78
2023/09/05 09:17:09;;;;;;;3.75;2.30;;;26.00;1.00;;;;;;5073408;28;20174;-78
2023/09/05 09:19:38;;;;;;;2.42;2.22;;;26.10;1.00;;;;;;5073476;28;20174;-78
2023/09/05 09:22:05;;;;;;;2.67;1.83;;;26.20;1.00;;;;;;5073483;28;20330;-78
2023/09/05 09:24:36;;;;;;;4.03;2.28;;;26.20;97.20;;;;;;5073965;28;20621;-78
2023/09/05 09:27:03;;;;;;;3.53;2.08;;;26.20;1.00;;;;;;5073821;28;20185;-78
2023/09/05 09:29:30;;;;;;;2.40;1.83;;;26.30;99.90;;;;;;5073445;28;20296;-78
2023/09/05 09:32:04;;;;;;;3.42;2.17;;;26.40;91.20;;;;;;5075060;28;20646;-78
2023/09/05 09:34:32;;;;;;;2.25;2.05;;;26.30;99.90;;;;;;5073180;28;20201;-78
2023/09/05 09:36:58;;;;;;;2.22;2.00;;;26.30;99.90;;;;;;5075195;28;20178;-78
2023/09/05 09:39:25;;;;;;;2.55;2.20;;;26.30;1.00;;;;;;5073198;28;20577;-78
2023/09/05 09:41:51;;;;;;;4.10;2.10;;;26.30;99.90;;;;;;5074468;28;20182;-77
2023/09/05 09:44:32;;;;;;;5.53;2.00;;;26.40;1.00;;;;;;5078480;28;20197;-76
2023/09/05 09:46:59;;;;;;;3.65;2.15;;;26.40;1.00;;;;;;5079618;28;20197;-77
2023/09/05 09:49:28;;;;;;;3.47;2.08;;;26.50;1.00;;;;;;5079719;28;20229;-76
2023/09/05 09:52:03;;;;;;;2.28;2.08;;;26.50;14.80;;;;;;5078916;28;20244;-79
2023/09/05 09:54:35;;;;;;;2.10;1.80;;;26.50;99.90;;;;;;5079185;28;20202;-79
2023/09/05 09:57:04;;;;;;;2.05;1.80;;;26.60;1.00;;;;;;5078482;28;20597;-77
2023/09/05 09:59:38;;;;;;;7.50;1.88;;;26.70;99.90;;;;;;5078683;28;20170;-76
2023/09/05 10:02:07;;;;;;;3.17;1.73;;;26.70;99.90;;;;;;5078257;28;20197;-77
2023/09/05 10:04:34;;;;;;;3.97;1.80;;;26.70;90.20;;;;;;5079330;28;20232;-79
2023/09/05 10:07:06;;;;;;;3.78;1.80;;;26.80;1.00;;;;;;5080743;28;20189;-79
2023/09/05 10:09:37;;;;;;;3.05;1.83;;;26.80;99.90;;;;;;5082992;28;20567;-80
2023/09/05 10:12:06;;;;;;;2.40;1.77;;;26.90;99.90;;;;;;5081793;28;20203;-79
2023/09/05 10:14:34;;;;;;;3.63;1.92;;;27.00;99.90;;;;;;5082094;28;20193;-79
2023/09/05 10:17:02;;;;;;;2.00;1.73;;;27.10;1.00;;;;;;5082613;28;20178;-80
2023/09/05 10:19:34;;;;;;;2.90;1.67;;;27.10;99.90;;;;;;5083045;28;20240;-80
2023/09/05 10:22:02;;;;;;;1.92;1.83;;;27.10;1.00;;;;;;5084357;28;20764;-79
2023/09/05 10:24:33;;;;;;;3.38;2.03;;;27.10;1.00;;;;;;5083091;28;20225;-79
2023/09/05 10:26:59;;;;;;;1.70;1.60;;;27.10;99.90;;;;;;5083649;28;20253;-79
2023/09/05 10:29:50;;;;;;;2.47;1.63;;;27.00;1.00;;;;;;5083618;28;20719;-78
2023/09/05 10:32:19;;;;;;;2.00;1.80;;;27.00;99.90;;;;;;5083291;28;20242;-79
2023/09/05 10:34:48;;;;;;;2.03;1.70;;;26.90;1.00;;;;;;5084448;28;20203;-79
2023/09/05 10:37:32;;;;;;;2.40;1.60;;;26.90;1.00;;;;;;5083984;28;20177;-80
2023/09/05 10:40:09;;;;;;;3.75;1.80;;;26.90;99.90;;;;;;5084232;28;20170;-79
2023/09/05 10:42:40;;;;;;;3.35;1.95;;;26.90;1.00;;;;;;5084911;28;20684;-79
2023/09/05 10:45:23;;;;;;;2.45;1.77;;;27.00;1.00;;;;;;5085029;28;20261;-79
2023/09/05 10:47:56;;;;;;;4.07;1.80;;;27.10;99.90;;;;;;5098343;28;20245;-79
2023/09/05 10:50:23;;;;;;;2.08;1.80;;;27.20;1.00;;;;;;5087335;28;20201;-80
2023/09/05 10:53:12;;;;;;;2.88;1.70;;;27.30;1.00;;;;;;5083176;28;20189;-79
2023/09/05 10:55:46;;;;;;;1.80;1.70;;;27.40;99.90;;;;;;5081047;28;20189;-78
2023/09/05 10:58:38;;;;;;;3.63;1.80;;;27.50;99.90;;;;;;5080954;28;20196;-79
2023/09/05 11:01:32;;;;;;;5.10;1.48;;;27.60;1.00;;;;;;5078902;28;20192;-79
2023/09/05 11:04:07;;;;;;;5.10;1.50;;;27.70;1.00;;;;;;5079282;28;20197;-79
2023/09/05 11:07:02;;;;;;;2.33;1.75;;;27.80;2.90;;;;;;5079977;28;20707;-79
2023/09/05 11:09:29;;;;;;;3.42;1.65;;;28.00;99.90;;;;;;5079445;28;20209;-79
2023/09/05 11:11:55;;;;;;;5.38;1.77;;;28.10;1.00;;;;;;5079127;28;20173;-79
2023/09/05 11:14:32;;;;;;;2.22;1.45;;;28.20;1.00;;;;;;5079097;28;20193;-79
2023/09/05 11:16:58;;;;;;;1.40;1.30;;;28.30;99.90;;;;;;5080942;28;20174;-79
2023/09/05 11:19:31;;;;;;;1.83;1.52;;;28.40;99.90;;;;;;5079410;28;20188;-80
2023/09/05 11:22:26;;;;;;;2.97;1.60;;;28.40;1.00;;;;;;5080638;28;20170;-80
2023/09/05 11:24:59;;;;;;;2.28;1.63;;;28.60;99.90;;;;;;5076323;28;20193;-79
2023/09/05 11:27:26;;;;;;;3.13;1.70;;;28.70;99.90;;;;;;5079802;28;20186;-79
2023/09/05 11:29:55;;;;;;;2.60;1.30;;;28.80;1.00;;;;;;5078747;28;20212;-79
2023/09/05 11:32:31;;;;;;;2.28;1.40;;;28.90;99.90;;;;;;5079503;28;20227;-79
2023/09/05 11:34:58;;;;;;;5.90;1.80;;;29.10;99.90;;;;;;5079794;28;20573;-79
2023/09/05 11:37:23;;;;;;;2.92;1.70;;;29.20;99.90;;;;;;5082064;28;20177;-79
2023/09/05 11:39:50;;;;;;;2.03;1.60;;;29.20;99.90;;;;;;5081803;28;20531;-79
2023/09/05 11:42:30;;;;;;;3.08;1.60;;;29.30;99.90;;;;;;5081954;28;20261;-80
2023/09/05 11:44:57;;;;;;;2.10;1.50;;;29.40;99.90;;;;;;5080532;28;20212;-79
2023/09/05 11:47:25;;;;;;;2.38;1.50;;;29.50;30.40;;;;;;5080765;28;20181;-80
2023/09/05 11:49:53;;;;;;;3.78;1.60;;;29.60;1.00;;;;;;5081466;28;20289;-79
2023/09/05 11:52:20;;;;;;;4.30;1.45;;;29.60;1.00;;;;;;5082368;28;20245;-79
2023/09/05 11:54:51;;;;;;;1.55;1.40;;;29.70;1.00;;;;;;5082192;28;20174;-79
2023/09/05 11:57:20;;;;;;;1.63;1.33;;;29.80;1.00;;;;;;5076357;28;20598;-79
2023/09/05 11:59:50;;;;;;;1.30;1.20;;;29.80;1.00;;;;;;5077087;28;20184;-79
2023/09/05 12:02:24;;;;;;;1.77;1.35;;;30.00;1.00;;;;;;5076660;28;20178;-79
2023/09/05 12:04:51;;;;;;;1.38;1.27;;;30.10;1.00;;;;;;5078229;28;20598;-80
2023/09/05 12:07:24;;;;;;;1.52;1.40;;;30.20;1.00;;;;;;5077350;28;20559;-79
2023/09/05 12:09:49;;;;;;;1.50;1.40;;;30.20;99.90;;;;;;5075313;28;20692;-77
2023/09/05 12:12:20;;;;;;;1.45;1.30;;;30.20;99.90;;;;;;5077865;28;20248;-78
2023/09/05 12:14:55;;;;;;;3.38;1.40;;;30.30;99.90;;;;;;5076265;28;20174;-78
2023/09/05 12:17:23;;;;;;;1.40;1.30;;;30.40;99.90;;;;;;5076775;28;20177;-79
2023/09/05 12:19:51;;;;;;;1.50;1.40;;;30.60;1.00;;;;;;5077349;28;20197;-76
2023/09/05 12:22:28;;;;;;;1.42;1.27;;;30.80;99.90;;;;;;5073998;28;20177;-78
2023/09/05 12:25:15;;;;;;;2.47;1.27;;;30.80;99.90;;;;;;5073725;28;20228;-77
2023/09/05 12:27:42;;;;;;;1.48;1.38;;;30.80;99.90;;;;;;5075174;28;20173;-78
2023/09/05 12:30:24;;;;;;;1.38;1.27;;;30.90;99.90;;;;;;5074516;28;20193;-78
2023/09/05 12:32:49;;;;;;;2.50;1.33;;;30.90;99.90;;;;;;5075660;28;20197;-78
2023/09/05 12:35:15;;;;;;;1.40;1.30;;;30.90;99.90;;;;;;5074057;28;20626;-78
2023/09/05 12:37:41;;;;;;;4.25;1.60;;;31.10;99.90;;;;;;5073882;28;20180;-78
2023/09/05 12:40:08;;;;;;;1.35;1.20;;;31.50;99.90;;;;;;5073857;28;20184;-78
2023/09/05 12:42:34;;;;;;;1.50;1.40;;;31.60;99.90;;;;;;5074983;28;20240;-78
2023/09/05 12:45:00;;;;;;;1.50;1.40;;;31.60;99.90;;;;;;5076064;28;20170;-79
2023/09/05 12:47:25;;;;;;;1.48;1.38;;;31.90;99.90;;;;;;5074954;28;20178;-79
2023/09/05 12:49:53;;;;;;;1.40;1.30;;;31.90;99.90;;;;;;5076966;28;20650;-79
2023/09/05 12:52:21;;;;;;;1.40;1.30;;;31.90;99.90;;;;;;5074619;28;20170;-80